Details From KCLM - William R Fairchild Intl
To KBLI - Bellingham Intl
Flight Number -
Tags Generated
Created
Modified
Stats Distance 56 nm / 104 km
Max Altitude 0 ft / 0 m
Waypoints 2
Social Downloads 1
Likes 0
Share VATSIM

Download

Looking for another format? Having issues loading an existing format? Contact us
Advertisement - Login to hide

Notes

Generated

Route

KCLM KBLI

ID Type Via Altitude Latitude Longitude Leg Dist Tot Dist Heading (true) Name
O KCLM APT - 0 ft / 0 m 48.12657˚ -123.50476˚ - 0 nm - -
O KBLI APT - 0 ft / 0 m 48.80188˚ -122.53756˚ 55 nm 55 nm 43° / 44° -

Altitude Profile

Advertisement - Login to hide

KCLM

Details ICAO KCLM (CLM)
Name WILLIAM R FAIRCHILD INTL
Region United States
Timezone America/Los_Angeles (UTC-8.0)
Stats Elevation 291 ft / 89 m (AMSL)
Location 48.120829° -123.500070°
Runways 2
Magnetic Variation 16.051° E

METAR

KCLM 181653Z AUTO 30009KT 10SM CLR 07/04 A3008 RMK AO2 SLP187 T00720039

Decode

TAF

KCLM 181125Z 1812/1912 29010G18KT 6SM -RA BR OVC012 FM181600 29008KT P6SM SCT025 BKN050 BKN080 FM190300 VRB03KT P6SM -RA BKN030 OVC050 FM190600 VRB03KT 5SM -RA BR BKN015 OVC030

Decode

Departure Runways

ID Width Length Bearing (true) Bearing (mag) Surface Threshold Offset Overrun Length
08 151 ft / 46 m 6,353 ft / 1,936 m 104.61° 88.56° Asphalt 0 ft / 0 m 0 ft / 0 m
13 49 ft / 15 m 3,244 ft / 989 m 147.64° 131.59° Asphalt 0 ft / 0 m 0 ft / 0 m
26 151 ft / 46 m 6,353 ft / 1,936 m 284.63° 268.58° Asphalt 1,355 ft / 413 m 0 ft / 0 m
31 49 ft / 15 m 3,244 ft / 989 m 327.64° 311.59° Asphalt 0 ft / 0 m 0 ft / 0 m

KBLI

Details ICAO KBLI (BLI)
Name BELLINGHAM INTL
Region United States
Timezone America/Los_Angeles (UTC-8.0)
Stats Elevation 170 ft / 52 m (AMSL)
Location 48.792615° -122.537535°
Runways 1
Magnetic Variation 16.051° E

METAR

KBLI 181653Z 00000KT 10SM -RA OVC048 07/06 A3006 RMK AO2 RAB1557 SLP187 P0001 T00670056

Decode

TAF

KBLI 181125Z 1812/1912 17010KT P6SM -RA SCT007 OVC015 TEMPO 1812/1815 3SM -RA BR BKN007 OVC015 FM181700 19006KT P6SM SCT015 BKN035 OVC080 FM182200 17003KT P6SM FEW020 SCT035 OVC120 FM190400 06004KT P6SM -RA SCT020 BKN035 OVC060 FM190800 03006KT 5SM -RA BR BKN015 OVC025

Decode

Destination Runways

ID Width Length Bearing (true) Bearing (mag) Surface Threshold Offset Overrun Length
16 151 ft / 46 m 6,755 ft / 2,059 m 179.88° 163.83° Asphalt 0 ft / 0 m 0 ft / 0 m
34 151 ft / 46 m 6,755 ft / 2,059 m 359.88° 343.83° Asphalt 0 ft / 0 m 0 ft / 0 m

Approach Navaids

Runway Type Ident Frequency Range Bearing (true) Bearing (mag) Slope Elevation
16 Localiser IBLI 108.50 MHz 18 nm / 33 km 179.83° 163.78° - 152 ft / 46 m (AMSL)
16 Glidescope IBLI 108.50 MHz 10 nm / 19 km 179.88° 163.83° 3.00° 154 ft / 47 m (AMSL)